createdAt,value
2022-12-15T00:00:59.837Z,34.72
2022-12-15T00:03:26.450Z,32.70
2022-12-15T00:05:52.800Z,33.38
2022-12-15T00:08:19.033Z,34.40
2022-12-15T00:10:45.535Z,33.42
2022-12-15T00:13:12.186Z,32.90
2022-12-15T00:15:38.611Z,33.42
2022-12-15T00:18:04.955Z,33.65
2022-12-15T00:20:31.201Z,33.05
2022-12-15T00:22:57.512Z,34.45
2022-12-15T00:25:23.875Z,33.03
2022-12-15T00:27:50.265Z,32.35
2022-12-15T00:30:16.570Z,32.55
2022-12-15T00:32:42.943Z,35.28
2022-12-15T00:35:09.406Z,33.25
2022-12-15T00:37:35.662Z,32.70
2022-12-15T00:40:01.941Z,33.17
2022-12-15T00:42:28.205Z,32.20
2022-12-15T00:44:54.692Z,32.80
2022-12-15T00:47:20.966Z,33.55
2022-12-15T00:49:47.304Z,32.47
2022-12-15T00:52:13.601Z,32.83
2022-12-15T00:54:39.904Z,32.88
2022-12-15T00:57:06.258Z,34.72
2022-12-15T00:59:32.579Z,34.42
2022-12-15T01:01:59.065Z,33.15
2022-12-15T01:04:25.565Z,33.70
2022-12-15T01:06:51.853Z,33.55
2022-12-15T01:09:18.159Z,33.58
2022-12-15T01:11:44.545Z,32.90
2022-12-15T01:14:10.782Z,32.50
2022-12-15T01:16:37.178Z,34.88
2022-12-15T01:19:03.506Z,33.30
2022-12-15T01:21:29.855Z,35.05
2022-12-15T01:23:56.087Z,32.80
2022-12-15T01:26:22.459Z,34.75
2022-12-15T01:28:48.816Z,32.35
2022-12-15T01:31:15.275Z,33.22
2022-12-15T01:33:41.605Z,34.72
2022-12-15T01:36:07.909Z,33.85
2022-12-15T01:38:34.239Z,34.13
2022-12-15T01:41:00.555Z,34.10
2022-12-15T01:43:26.943Z,32.90
2022-12-15T01:45:53.316Z,33.58
2022-12-15T01:48:19.646Z,33.85
2022-12-15T01:50:45.947Z,34.25
2022-12-15T01:53:12.385Z,35.03
2022-12-15T01:55:38.686Z,33.95
2022-12-15T01:58:05.124Z,32.58
2022-12-15T02:00:31.416Z,34.75
2022-12-15T02:02:58.132Z,33.70
2022-12-15T02:05:24.747Z,34.28
2022-12-15T02:07:51.139Z,33.13
2022-12-15T02:10:17.527Z,35.78
2022-12-15T02:12:43.903Z,34.42
2022-12-15T02:15:10.289Z,33.97
2022-12-15T02:17:36.677Z,33.25
2022-12-15T02:20:03.038Z,34.05
2022-12-15T02:22:29.318Z,35.17
2022-12-15T02:24:55.593Z,34.47
2022-12-15T02:27:22.030Z,34.13
2022-12-15T02:29:48.468Z,35.83
2022-12-15T02:32:14.783Z,36.28
2022-12-15T02:34:41.130Z,35.72
2022-12-15T02:37:07.411Z,34.45
2022-12-15T02:39:33.750Z,33.75
2022-12-15T02:42:00.079Z,35.22
2022-12-15T02:44:26.348Z,34.42
2022-12-15T02:46:52.648Z,35.35
2022-12-15T02:49:18.911Z,35.13
2022-12-15T02:51:45.274Z,36.15
2022-12-15T02:54:11.529Z,34.13
2022-12-15T02:56:37.888Z,34.78
2022-12-15T02:59:04.252Z,36.13
2022-12-15T03:01:30.707Z,35.00
2022-12-15T03:03:57.274Z,35.13
2022-12-15T03:06:23.642Z,34.35
2022-12-15T03:08:49.913Z,35.00
2022-12-15T03:11:16.210Z,34.50
2022-12-15T03:13:42.627Z,33.97
2022-12-15T03:16:08.930Z,34.85
2022-12-15T03:18:35.246Z,34.42
2022-12-15T03:21:01.544Z,34.47
2022-12-15T03:23:28.072Z,33.58
2022-12-15T03:25:54.764Z,36.45
2022-12-15T03:28:21.146Z,35.47
2022-12-15T03:30:50.390Z,34.58
2022-12-15T03:33:17.083Z,35.40
2022-12-15T03:35:43.327Z,35.30
2022-12-15T03:38:10.148Z,34.13
2022-12-15T03:40:36.568Z,35.35
2022-12-15T03:43:03.056Z,35.15
2022-12-15T03:45:29.609Z,33.20
2022-12-15T03:47:56.245Z,35.08
2022-12-15T03:50:22.536Z,35.20
2022-12-15T03:52:49.156Z,33.78
2022-12-15T03:55:15.470Z,35.67
2022-12-15T03:57:41.798Z,35.25
2022-12-15T04:00:08.058Z,36.25
2022-12-15T04:02:34.470Z,34.20
2022-12-15T04:05:00.978Z,33.75
2022-12-15T04:07:27.316Z,35.22
2022-12-15T04:09:53.857Z,35.53
2022-12-15T04:12:20.099Z,35.78
2022-12-15T04:14:46.378Z,35.22
2022-12-15T04:17:15.996Z,35.30
2022-12-15T04:19:42.514Z,36.47
2022-12-15T04:22:11.553Z,34.65
2022-12-15T04:24:40.124Z,36.45
2022-12-15T04:27:06.388Z,36.22
2022-12-15T04:29:32.711Z,32.67
2022-12-15T04:31:59.030Z,34.78
2022-12-15T04:34:25.391Z,35.92
2022-12-15T04:36:51.762Z,35.15
2022-12-15T04:39:18.114Z,35.90
2022-12-15T04:41:44.525Z,35.90
2022-12-15T04:44:10.848Z,34.88
2022-12-15T04:46:37.264Z,35.20
2022-12-15T04:49:03.639Z,35.83
2022-12-15T04:51:29.948Z,35.17
2022-12-15T04:53:56.258Z,34.15
2022-12-15T04:56:22.505Z,34.35
2022-12-15T04:58:48.882Z,34.42
2022-12-15T05:01:15.254Z,35.47
2022-12-15T05:03:41.569Z,35.08
2022-12-15T05:06:07.985Z,34.72
2022-12-15T05:08:34.459Z,35.35
2022-12-15T05:11:00.753Z,34.40
2022-12-15T05:13:27.299Z,35.78
2022-12-15T05:15:53.678Z,33.53
2022-12-15T05:18:20.041Z,34.97
2022-12-15T05:20:46.272Z,34.10
2022-12-15T05:23:16.680Z,34.22
2022-12-15T05:25:42.979Z,34.50
2022-12-15T05:28:09.290Z,35.30
2022-12-15T05:30:35.715Z,36.88
2022-12-15T05:33:02.060Z,34.30
2022-12-15T05:35:28.431Z,34.78
2022-12-15T05:37:54.764Z,32.08
2022-12-15T05:40:21.211Z,34.40
2022-12-15T05:42:50.224Z,34.53
2022-12-15T05:45:16.732Z,35.13
2022-12-15T05:47:43.116Z,34.30
2022-12-15T05:50:09.593Z,34.50
2022-12-15T05:52:35.893Z,33.72
2022-12-15T05:55:02.156Z,34.88
2022-12-15T05:57:28.495Z,34.45
2022-12-15T05:59:54.799Z,34.40
2022-12-15T06:02:21.084Z,35.20
2022-12-15T06:04:47.592Z,34.25
2022-12-15T06:07:14.035Z,34.55
2022-12-15T06:09:40.304Z,34.35
2022-12-15T06:12:06.602Z,34.38
2022-12-15T06:14:32.934Z,34.00
2022-12-15T06:16:59.314Z,34.25
2022-12-15T06:19:25.727Z,34.08
2022-12-15T06:21:52.063Z,34.63
2022-12-15T06:24:18.345Z,34.65
2022-12-15T06:26:44.743Z,34.95
2022-12-15T06:29:11.149Z,34.60
2022-12-15T06:31:37.468Z,34.83
2022-12-15T06:34:03.799Z,35.03
2022-12-15T06:36:30.144Z,33.72
2022-12-15T06:38:56.670Z,34.17
2022-12-15T06:41:23.065Z,33.90
2022-12-15T06:43:49.553Z,34.78
2022-12-15T06:46:16.158Z,34.03
2022-12-15T06:48:42.645Z,33.22
2022-12-15T06:51:16.396Z,34.42
2022-12-15T06:53:43.512Z,33.88
2022-12-15T06:56:09.752Z,33.53
2022-12-15T06:58:36.202Z,34.60
2022-12-15T07:01:02.507Z,32.90
2022-12-15T07:03:29.101Z,34.60
2022-12-15T07:05:55.760Z,32.58
2022-12-15T07:08:27.050Z,33.15
2022-12-15T07:10:56.663Z,34.10
2022-12-15T07:13:22.975Z,34.67
2022-12-15T07:15:49.472Z,34.63
2022-12-15T07:18:16.248Z,33.75
2022-12-15T07:20:42.595Z,32.83
2022-12-15T07:23:08.871Z,33.90
2022-12-15T07:25:35.130Z,33.53
2022-12-15T07:28:01.900Z,34.30
2022-12-15T07:30:29.584Z,32.35
2022-12-15T07:32:57.717Z,32.95
2022-12-15T07:35:24.149Z,34.13
2022-12-15T07:37:50.556Z,34.53
2022-12-15T07:40:16.828Z,33.10
2022-12-15T07:42:43.302Z,32.60
2022-12-15T07:45:09.624Z,34.55
2022-12-15T07:47:36.846Z,34.05
2022-12-15T07:50:03.291Z,32.85
2022-12-15T07:52:29.537Z,32.80
2022-12-15T07:54:55.923Z,33.05
2022-12-15T07:57:22.255Z,33.60
2022-12-15T07:59:48.573Z,33.60
2022-12-15T08:02:15.215Z,33.75
2022-12-15T08:04:41.762Z,32.63
2022-12-15T08:07:08.170Z,31.58
2022-12-15T08:09:34.487Z,32.13
2022-12-15T08:12:00.896Z,32.03
2022-12-15T08:14:27.240Z,32.72
2022-12-15T08:16:53.570Z,32.35
2022-12-15T08:19:19.964Z,32.05
2022-12-15T08:21:46.315Z,31.83
2022-12-15T08:24:12.601Z,31.15
2022-12-15T08:26:39.045Z,32.92
2022-12-15T08:34:22.609Z,32.35
2022-12-15T08:36:48.932Z,32.45
2022-12-15T08:39:15.432Z,32.22
2022-12-15T08:41:41.699Z,31.77
2022-12-15T08:44:08.116Z,33.13
2022-12-15T08:46:34.493Z,33.90
2022-12-15T08:49:00.937Z,32.95
2022-12-15T08:51:27.284Z,31.77
2022-12-15T08:53:53.682Z,32.38
2022-12-15T08:56:20.044Z,32.38
2022-12-15T08:58:46.560Z,36.38
2022-12-15T09:01:16.081Z,34.60
2022-12-15T09:03:47.146Z,37.05
2022-12-15T09:06:13.419Z,37.88
2022-12-15T09:08:39.722Z,42.13
2022-12-15T09:11:06.108Z,48.25
2022-12-15T09:13:32.804Z,54.40
2022-12-15T09:16:09.476Z,60.40
2022-12-15T09:18:36.908Z,64.70
2022-12-15T09:21:03.196Z,67.55
2022-12-15T09:23:29.909Z,72.95
2022-12-15T09:25:56.541Z,73.80
2022-12-15T09:28:22.871Z,73.85
2022-12-15T09:30:49.240Z,76.22
2022-12-15T09:33:15.482Z,77.57
2022-12-15T09:35:41.764Z,78.53
2022-12-15T09:38:08.032Z,82.45
2022-12-15T09:40:34.518Z,79.03
2022-12-15T09:43:32.718Z,79.70
2022-12-15T09:45:47.259Z,81.53
2022-12-15T09:48:13.589Z,79.82
2022-12-15T09:50:39.981Z,78.35
2022-12-15T09:53:23.138Z,75.65
2022-12-15T09:55:52.517Z,74.88
2022-12-15T09:58:19.297Z,74.03
2022-12-15T10:00:45.690Z,74.75
2022-12-15T10:08:18.642Z,72.93
2022-12-15T10:13:24.655Z,75.32
2022-12-15T10:15:51.033Z,75.57
2022-12-15T10:18:17.898Z,74.60
2022-12-15T10:20:44.311Z,80.97
2022-12-15T10:25:41.901Z,82.82
2022-12-15T10:28:08.240Z,80.93
2022-12-15T10:30:37.760Z,78.75
2022-12-15T10:33:04.191Z,80.25
2022-12-15T10:35:30.589Z,86.45
2022-12-15T10:37:57.018Z,95.35
2022-12-15T10:40:23.379Z,97.00
2022-12-15T10:42:49.820Z,95.70
2022-12-15T10:45:16.581Z,101.47
2022-12-15T10:47:43.031Z,99.70
2022-12-15T10:50:09.730Z,95.47
2022-12-15T10:52:36.164Z,94.82
2022-12-15T10:55:02.449Z,91.68
2022-12-15T10:57:28.716Z,91.78
2022-12-15T10:59:55.248Z,90.05
2022-12-15T11:02:24.306Z,92.45
2022-12-15T11:04:51.808Z,90.40
2022-12-15T11:07:18.071Z,93.38
2022-12-15T11:09:44.807Z,88.40
2022-12-15T11:12:12.574Z,90.68
2022-12-15T11:14:38.970Z,90.20
2022-12-15T11:17:05.309Z,88.30
2022-12-15T11:19:31.794Z,89.05
2022-12-15T11:21:58.185Z,89.63
2022-12-15T11:24:24.643Z,85.88
2022-12-15T11:26:51.403Z,86.85
2022-12-15T11:29:17.762Z,84.55
2022-12-15T11:31:44.122Z,81.00
2022-12-15T11:36:46.725Z,79.63
2022-12-15T11:39:14.958Z,79.40
2022-12-15T11:41:41.275Z,78.40
2022-12-15T11:44:07.563Z,74.15
2022-12-15T11:46:33.874Z,72.53
2022-12-15T11:49:00.242Z,67.53
2022-12-15T11:51:26.535Z,69.20
2022-12-15T11:53:52.782Z,65.68
2022-12-15T11:56:19.089Z,66.15
2022-12-15T11:58:45.370Z,63.38
2022-12-15T12:01:15.075Z,60.67
2022-12-15T12:03:41.444Z,59.22
2022-12-15T12:06:07.801Z,58.80
2022-12-15T12:08:34.886Z,57.08
2022-12-15T12:11:01.508Z,54.22
2022-12-15T12:13:27.833Z,54.58
2022-12-15T12:15:54.292Z,51.90
2022-12-15T12:18:20.624Z,52.72
2022-12-15T12:20:46.915Z,52.28
2022-12-15T12:23:13.220Z,48.72
2022-12-15T12:25:39.506Z,48.63
2022-12-15T12:28:05.861Z,47.15
2022-12-15T12:30:32.179Z,47.50
2022-12-15T12:32:58.625Z,46.28
2022-12-15T12:35:31.899Z,45.85
2022-12-15T12:38:03.101Z,47.05
2022-12-15T12:40:30.122Z,46.13
2022-12-15T12:42:56.533Z,46.78
2022-12-15T12:45:22.966Z,46.75
2022-12-15T12:47:49.333Z,44.95
2022-12-15T12:50:16.679Z,44.70
2022-12-15T12:52:42.995Z,43.38
2022-12-15T12:57:55.540Z,43.13
2022-12-15T13:00:22.057Z,41.65
2022-12-15T13:02:48.495Z,42.35
2022-12-15T13:05:16.871Z,41.17
2022-12-15T13:07:43.232Z,40.60
2022-12-15T13:10:10.077Z,40.40
2022-12-15T13:12:52.921Z,39.90
2022-12-15T13:15:20.084Z,39.50
2022-12-15T13:17:46.499Z,36.90
2022-12-15T13:20:15.108Z,38.67
2022-12-15T13:22:41.455Z,36.80
2022-12-15T13:25:07.716Z,36.03
2022-12-15T13:27:34.009Z,35.95
2022-12-15T13:30:00.264Z,36.63
2022-12-15T13:32:26.754Z,35.63
2022-12-15T13:34:53.160Z,35.90
2022-12-15T13:37:19.421Z,32.75
2022-12-15T13:39:45.747Z,34.60
2022-12-15T13:42:33.394Z,33.13
2022-12-15T13:45:01.680Z,32.95
2022-12-15T13:47:28.119Z,32.47
2022-12-15T13:50:01.070Z,32.45
2022-12-15T13:53:08.045Z,31.35
2022-12-15T13:55:14.738Z,32.47
2022-12-15T13:57:41.172Z,31.20
2022-12-15T14:00:07.453Z,31.13
2022-12-15T14:02:33.922Z,32.28
2022-12-15T14:05:00.246Z,29.67
2022-12-15T14:07:26.544Z,30.23
2022-12-15T14:09:52.836Z,28.63
2022-12-15T14:12:19.183Z,28.20
2022-12-15T14:14:45.574Z,29.40
2022-12-15T14:17:15.216Z,28.38
2022-12-15T14:19:41.512Z,29.08
2022-12-15T14:22:07.855Z,28.27
2022-12-15T14:24:38.903Z,29.42
2022-12-15T14:27:06.056Z,27.80
2022-12-15T14:29:32.509Z,28.05
2022-12-15T14:31:59.046Z,26.15
2022-12-15T14:34:25.449Z,26.90
2022-12-15T14:36:51.895Z,27.95
2022-12-15T14:39:18.328Z,26.42
2022-12-15T14:41:44.691Z,26.73
2022-12-15T14:44:37.365Z,26.67
2022-12-15T14:47:01.841Z,26.27
2022-12-15T14:49:28.257Z,26.38
2022-12-15T14:51:54.829Z,25.60
2022-12-15T14:54:21.339Z,25.48
2022-12-15T14:56:47.672Z,24.88
2022-12-15T14:59:13.949Z,24.90
2022-12-15T15:01:40.530Z,25.40
2022-12-15T15:03:09.638Z,43.25
2022-12-15T15:04:06.886Z,24.23
2022-12-15T15:06:33.355Z,25.23
2022-12-15T15:08:59.701Z,24.23
2022-12-15T15:11:26.021Z,24.50
2022-12-15T15:13:52.316Z,24.40
2022-12-15T15:16:18.842Z,23.80
2022-12-15T15:18:45.590Z,24.00
2022-12-15T15:21:11.851Z,23.67
2022-12-15T15:23:38.196Z,24.05
2022-12-15T15:26:04.853Z,24.70
2022-12-15T15:28:31.618Z,25.25
2022-12-15T15:30:58.278Z,23.02
2022-12-15T15:33:24.598Z,25.15
2022-12-15T15:35:51.053Z,23.45
2022-12-15T15:38:17.562Z,23.38
2022-12-15T15:40:44.319Z,22.42
2022-12-15T15:43:10.648Z,22.90
2022-12-15T15:45:36.930Z,23.60
2022-12-15T15:48:03.661Z,21.63
2022-12-15T15:50:29.986Z,22.52
2022-12-15T15:52:56.321Z,23.48
2022-12-15T15:55:22.599Z,23.10
2022-12-15T15:57:49.170Z,22.00
2022-12-15T16:00:15.395Z,23.13
2022-12-15T16:02:42.059Z,22.83
2022-12-15T16:05:08.529Z,24.02
2022-12-15T16:07:35.085Z,22.30
2022-12-15T16:10:01.349Z,22.08
2022-12-15T16:12:27.621Z,23.02
2022-12-15T16:14:53.896Z,21.88
2022-12-15T16:17:20.236Z,21.90
2022-12-15T16:19:46.517Z,22.98
2022-12-15T16:22:13.016Z,22.48
2022-12-15T16:24:39.266Z,21.75
2022-12-15T16:27:05.852Z,21.85
2022-12-15T16:29:32.291Z,23.25
2022-12-15T16:31:58.651Z,22.45
2022-12-15T16:34:25.033Z,21.58
2022-12-15T16:36:51.313Z,21.10
2022-12-15T16:39:17.751Z,21.83
2022-12-15T16:41:44.027Z,22.92
2022-12-15T16:44:10.261Z,22.25
2022-12-15T16:46:36.761Z,21.85
2022-12-15T16:49:03.103Z,20.98
2022-12-15T16:51:29.486Z,22.23
2022-12-15T16:53:55.951Z,21.45
2022-12-15T16:56:22.204Z,20.75
2022-12-15T16:58:52.881Z,22.77
2022-12-15T17:01:23.722Z,21.85
2022-12-15T17:03:50.199Z,21.25
2022-12-15T17:06:16.563Z,22.83
2022-12-15T17:08:42.863Z,20.58
2022-12-15T17:11:09.364Z,22.27
2022-12-15T17:13:40.606Z,20.52
2022-12-15T17:16:10.063Z,21.95
2022-12-15T17:18:36.628Z,21.05
2022-12-15T17:21:02.993Z,21.90
2022-12-15T17:23:29.562Z,22.48
2022-12-15T17:28:42.600Z,22.05
2022-12-15T17:31:09.003Z,21.13
2022-12-15T17:33:35.726Z,21.90
2022-12-15T17:36:02.240Z,19.90
2022-12-15T17:38:28.574Z,20.73
2022-12-15T17:40:54.902Z,22.15
2022-12-15T17:43:21.520Z,21.63
2022-12-15T17:45:47.961Z,22.25
2022-12-15T17:48:14.545Z,20.88
2022-12-15T17:50:40.867Z,19.77
2022-12-15T17:55:42.951Z,20.48
2022-12-15T18:00:49.166Z,89.95
2022-12-15T18:03:15.984Z,96.78
2022-12-15T18:05:42.466Z,82.32
2022-12-15T18:08:08.767Z,64.22
2022-12-15T18:10:35.149Z,53.72
2022-12-15T18:13:01.443Z,50.30
2022-12-15T18:15:27.946Z,79.93
2022-12-15T18:17:54.239Z,124.88
2022-12-15T18:20:20.603Z,104.20
2022-12-15T18:22:47.128Z,87.78
2022-12-15T18:30:27.973Z,77.72
2022-12-15T18:32:54.290Z,73.90
2022-12-15T18:35:20.655Z,72.07
2022-12-15T18:37:47.162Z,67.00
2022-12-15T18:40:13.531Z,61.67
2022-12-15T18:42:40.004Z,60.33
2022-12-15T18:45:06.280Z,56.67
2022-12-15T18:47:32.695Z,56.35
2022-12-15T18:49:59.027Z,53.13
2022-12-15T18:52:30.035Z,53.15
2022-12-15T18:54:59.480Z,52.40
2022-12-15T18:57:27.727Z,63.85
2022-12-15T18:59:54.028Z,148.57
2022-12-15T19:02:20.573Z,177.82
2022-12-15T19:09:58.007Z,146.27
2022-12-15T19:12:24.310Z,126.25
2022-12-15T19:14:50.700Z,122.07
2022-12-15T19:17:17.014Z,160.18
2022-12-15T19:19:43.450Z,204.05
2022-12-15T19:22:09.896Z,220.95
2022-12-15T19:24:36.361Z,217.90
2022-12-15T19:27:02.887Z,204.50
2022-12-15T19:29:29.354Z,188.27
2022-12-15T19:31:55.750Z,177.23
2022-12-15T19:34:22.370Z,155.23
2022-12-15T19:42:00.028Z,129.75
2022-12-15T19:44:26.282Z,127.10
2022-12-15T19:46:52.617Z,116.18
2022-12-15T19:49:18.952Z,112.53
2022-12-15T19:51:45.319Z,105.13
2022-12-15T19:54:11.613Z,99.63
2022-12-15T19:56:38.289Z,118.93
2022-12-15T20:04:24.170Z,154.43
2022-12-15T20:06:50.903Z,137.10
2022-12-15T20:14:32.046Z,114.38
2022-12-15T20:16:58.604Z,111.95
2022-12-15T20:19:24.917Z,99.80
2022-12-15T20:21:51.234Z,97.07
2022-12-15T20:24:17.488Z,91.47
2022-12-15T20:26:43.901Z,85.70
2022-12-15T20:29:10.254Z,82.05
2022-12-15T20:31:36.652Z,77.32
2022-12-15T20:34:03.020Z,75.30
2022-12-15T20:36:29.323Z,69.88
2022-12-15T20:38:55.576Z,185.30
2022-12-15T20:41:21.840Z,177.02
2022-12-15T20:43:48.216Z,162.35
2022-12-15T20:46:14.603Z,152.70
2022-12-15T20:48:40.955Z,137.38
2022-12-15T20:51:09.658Z,106.60
2022-12-15T20:58:54.063Z,57.80
2022-12-15T21:01:20.533Z,48.15
2022-12-15T21:03:47.035Z,44.80
2022-12-15T21:06:13.504Z,38.90
2022-12-15T21:08:39.864Z,37.65
2022-12-15T21:11:06.142Z,37.80
2022-12-15T21:13:32.793Z,48.72
2022-12-15T21:15:59.493Z,59.00
2022-12-15T21:19:18.131Z,64.50
2022-12-15T21:21:12.116Z,65.07
2022-12-15T21:23:42.578Z,62.10
2022-12-15T21:26:09.179Z,60.50
2022-12-15T21:28:35.723Z,62.83
2022-12-15T21:31:02.182Z,61.45
2022-12-15T21:33:28.811Z,57.83
2022-12-15T21:35:55.130Z,58.75
2022-12-15T21:38:21.616Z,65.03
2022-12-15T21:40:47.865Z,127.63
2022-12-15T21:43:14.541Z,150.00
2022-12-15T21:45:41.182Z,162.95
2022-12-15T21:48:07.521Z,165.50
2022-12-15T21:50:33.784Z,162.00
2022-12-15T21:53:00.098Z,162.68
2022-12-15T21:55:26.323Z,157.68
2022-12-15T21:57:52.588Z,152.00
2022-12-15T22:00:18.971Z,149.07
2022-12-15T22:02:45.348Z,144.45
2022-12-15T22:05:11.636Z,230.73
2022-12-15T22:07:38.006Z,398.27
2022-12-15T22:10:04.600Z,389.77
2022-12-15T22:12:31.040Z,338.05
2022-12-15T22:14:57.404Z,310.77
2022-12-15T22:17:23.719Z,312.77
2022-12-15T22:19:50.446Z,321.73
2022-12-15T22:22:17.867Z,326.40
2022-12-15T22:24:44.299Z,321.02
2022-12-15T22:27:10.589Z,319.77
2022-12-15T22:29:38.639Z,322.15
2022-12-15T22:32:05.491Z,319.55
2022-12-15T22:34:31.928Z,309.30
2022-12-15T22:36:58.164Z,298.63
2022-12-15T22:39:24.551Z,298.58
2022-12-15T22:41:50.927Z,294.20
2022-12-15T22:44:17.548Z,285.42
2022-12-15T22:46:44.255Z,280.27
2022-12-15T22:49:10.628Z,279.00
2022-12-15T22:51:36.996Z,273.48
2022-12-15T22:54:03.345Z,265.08
2022-12-15T22:56:29.587Z,264.00
2022-12-15T22:58:55.834Z,252.30
2022-12-15T23:01:22.154Z,253.70
2022-12-15T23:03:48.548Z,247.60
2022-12-15T23:06:14.866Z,241.38
2022-12-15T23:08:41.315Z,235.15
2022-12-15T23:11:07.580Z,228.57
2022-12-15T23:13:34.485Z,223.80
2022-12-15T23:16:01.015Z,222.45
2022-12-15T23:18:27.471Z,213.15
2022-12-15T23:20:53.721Z,211.05
2022-12-15T23:23:20.954Z,202.25
2022-12-15T23:25:47.406Z,199.43
2022-12-15T23:28:13.876Z,200.80
2022-12-15T23:30:40.183Z,188.10
2022-12-15T23:33:06.596Z,191.73
2022-12-15T23:35:32.884Z,185.85
2022-12-15T23:37:59.305Z,181.98
2022-12-15T23:40:25.612Z,174.65
2022-12-15T23:42:51.962Z,171.65
2022-12-15T23:45:18.554Z,176.15
2022-12-15T23:47:45.219Z,166.35
2022-12-15T23:50:11.667Z,162.75
2022-12-15T23:52:38.164Z,157.23
2022-12-15T23:55:04.498Z,157.35
2022-12-15T23:57:30.980Z,155.55
2022-12-15T23:59:57.651Z,148.25
